sensor_id;sensor_type;location;lat;lon;timestamp;temperature;humidity
70300;HTU21D;57704;51.112;5.878;2023-04-06T00:00:14;6.88;54.01
70300;HTU21D;57704;51.112;5.878;2023-04-06T00:02:41;6.84;54.26
70300;HTU21D;57704;51.112;5.878;2023-04-06T00:05:26;6.84;54.27
70300;HTU21D;57704;51.112;5.878;2023-04-06T00:08:11;6.83;54.35
70300;HTU21D;57704;51.112;5.878;2023-04-06T00:10:37;6.84;54.35
70300;HTU21D;57704;51.112;5.878;2023-04-06T00:13:22;6.83;54.39
70300;HTU21D;57704;51.112;5.878;2023-04-06T00:16:07;6.85;54.42
70300;HTU21D;57704;51.112;5.878;2023-04-06T00:18:51;6.84;54.49
70300;HTU21D;57704;51.112;5.878;2023-04-06T00:21:17;6.79;54.52
70300;HTU21D;57704;51.112;5.878;2023-04-06T00:24:02;6.75;54.65
70300;HTU21D;57704;51.112;5.878;2023-04-06T00:26:29;6.73;54.73
70300;HTU21D;57704;51.112;5.878;2023-04-06T00:29:14;6.72;54.83
70300;HTU21D;57704;51.112;5.878;2023-04-06T00:31:41;6.71;54.89
70300;HTU21D;57704;51.112;5.878;2023-04-06T00:34:25;6.70;54.91
70300;HTU21D;57704;51.112;5.878;2023-04-06T00:36:51;6.67;55.04
70300;HTU21D;57704;51.112;5.878;2023-04-06T00:39:36;6.58;55.24
70300;HTU21D;57704;51.112;5.878;2023-04-06T00:42:21;6.52;55.46
70300;HTU21D;57704;51.112;5.878;2023-04-06T00:45:10;6.46;55.53
70300;HTU21D;57704;51.112;5.878;2023-04-06T00:47:56;6.37;55.73
70300;HTU21D;57704;51.112;5.878;2023-04-06T00:50:22;6.36;55.89
70300;HTU21D;57704;51.112;5.878;2023-04-06T00:53:06;6.33;55.97
70300;HTU21D;57704;51.112;5.878;2023-04-06T00:55:32;6.35;56.06
70300;HTU21D;57704;51.112;5.878;2023-04-06T00:57:59;6.35;56.05
70300;HTU21D;57704;51.112;5.878;2023-04-06T01:00:33;6.36;56.09
70300;HTU21D;57704;51.112;5.878;2023-04-06T01:03:19;6.30;56.04
70300;HTU21D;57704;51.112;5.878;2023-04-06T01:05:46;6.19;56.31
70300;HTU21D;57704;51.112;5.878;2023-04-06T01:08:24;6.05;56.71
70300;HTU21D;57704;51.112;5.878;2023-04-06T01:10:58;5.96;57.09
70300;HTU21D;57704;51.112;5.878;2023-04-06T01:13:28;5.93;57.36
70300;HTU21D;57704;51.112;5.878;2023-04-06T01:15:59;5.94;57.44
70300;HTU21D;57704;51.112;5.878;2023-04-06T01:19:11;5.97;57.37
70300;HTU21D;57704;51.112;5.878;2023-04-06T01:21:59;5.96;57.37
70300;HTU21D;57704;51.112;5.878;2023-04-06T01:24:31;5.91;57.44
70300;HTU21D;57704;51.112;5.878;2023-04-06T01:27:25;5.87;57.58
70300;HTU21D;57704;51.112;5.878;2023-04-06T01:29:52;5.86;57.69
70300;HTU21D;57704;51.112;5.878;2023-04-06T01:32:59;5.86;57.67
70300;HTU21D;57704;51.112;5.878;2023-04-06T01:35:56;5.86;57.58
70300;HTU21D;57704;51.112;5.878;2023-04-06T01:38:23;5.86;57.54
70300;HTU21D;57704;51.112;5.878;2023-04-06T01:41:08;5.86;57.54
70300;HTU21D;57704;51.112;5.878;2023-04-06T01:43:45;5.84;57.55
70300;HTU21D;57704;51.112;5.878;2023-04-06T01:46:11;5.81;57.57
70300;HTU21D;57704;51.112;5.878;2023-04-06T01:48:59;5.78;57.72
70300;HTU21D;57704;51.112;5.878;2023-04-06T01:51:36;5.70;57.92
70300;HTU21D;57704;51.112;5.878;2023-04-06T01:54:05;5.64;58.19
70300;HTU21D;57704;51.112;5.878;2023-04-06T01:56:51;5.63;58.21
70300;HTU21D;57704;51.112;5.878;2023-04-06T01:59:28;5.63;58.32
70300;HTU21D;57704;51.112;5.878;2023-04-06T02:01:55;5.62;58.22
70300;HTU21D;57704;51.112;5.878;2023-04-06T02:04:41;5.63;58.34
70300;HTU21D;57704;51.112;5.878;2023-04-06T02:07:29;5.65;58.22
70300;HTU21D;57704;51.112;5.878;2023-04-06T02:10:14;5.63;58.16
70300;HTU21D;57704;51.112;5.878;2023-04-06T02:12:41;5.60;58.31
70300;HTU21D;57704;51.112;5.878;2023-04-06T02:15:30;5.60;58.38
70300;HTU21D;57704;51.112;5.878;2023-04-06T02:17:57;5.59;58.32
70300;HTU21D;57704;51.112;5.878;2023-04-06T02:20:24;5.55;58.40
70300;HTU21D;57704;51.112;5.878;2023-04-06T02:22:50;5.54;58.42
70300;HTU21D;57704;51.112;5.878;2023-04-06T02:25:34;5.54;58.43
70300;HTU21D;57704;51.112;5.878;2023-04-06T02:28:19;5.55;58.46
70300;HTU21D;57704;51.112;5.878;2023-04-06T02:31:03;5.52;58.48
70300;HTU21D;57704;51.112;5.878;2023-04-06T02:33:48;5.49;58.57
70300;HTU21D;57704;51.112;5.878;2023-04-06T02:36:34;5.48;58.61
70300;HTU21D;57704;51.112;5.878;2023-04-06T02:39:19;5.45;58.73
70300;HTU21D;57704;51.112;5.878;2023-04-06T02:42:04;5.41;58.90
70300;HTU21D;57704;51.112;5.878;2023-04-06T02:44:48;5.36;59.07
70300;HTU21D;57704;51.112;5.878;2023-04-06T02:47:35;5.28;59.26
70300;HTU21D;57704;51.112;5.878;2023-04-06T02:50:20;5.25;59.64
70300;HTU21D;57704;51.112;5.878;2023-04-06T02:53:12;5.25;59.76
70300;HTU21D;57704;51.112;5.878;2023-04-06T02:55:39;5.28;59.76
70300;HTU21D;57704;51.112;5.878;2023-04-06T02:58:24;5.32;59.65
70300;HTU21D;57704;51.112;5.878;2023-04-06T03:00:54;5.26;59.80
70300;HTU21D;57704;51.112;5.878;2023-04-06T03:03:38;5.15;60.11
70300;HTU21D;57704;51.112;5.878;2023-04-06T03:06:09;5.09;60.50
70300;HTU21D;57704;51.112;5.878;2023-04-06T03:08:35;5.08;60.79
70300;HTU21D;57704;51.112;5.878;2023-04-06T03:11:01;5.15;60.76
70300;HTU21D;57704;51.112;5.878;2023-04-06T03:13:36;5.18;60.61
70300;HTU21D;57704;51.112;5.878;2023-04-06T03:16:22;5.22;60.53
70300;HTU21D;57704;51.112;5.878;2023-04-06T03:18:48;5.24;60.64
70300;HTU21D;57704;51.112;5.878;2023-04-06T03:21:33;5.24;60.80
70300;HTU21D;57704;51.112;5.878;2023-04-06T03:24:18;5.19;60.86
70300;HTU21D;57704;51.112;5.878;2023-04-06T03:27:02;5.15;61.01
70300;HTU21D;57704;51.112;5.878;2023-04-06T03:29:47;5.10;61.14
70300;HTU21D;57704;51.112;5.878;2023-04-06T03:32:37;4.96;61.38
70300;HTU21D;57704;51.112;5.878;2023-04-06T03:35:21;4.90;61.73
70300;HTU21D;57704;51.112;5.878;2023-04-06T03:38:06;4.89;61.85
70300;HTU21D;57704;51.112;5.878;2023-04-06T03:40:32;4.88;61.93
70300;HTU21D;57704;51.112;5.878;2023-04-06T03:43:17;4.84;61.98
70300;HTU21D;57704;51.112;5.878;2023-04-06T03:46:01;4.90;61.99
70300;HTU21D;57704;51.112;5.878;2023-04-06T03:48:27;4.98;61.89
70300;HTU21D;57704;51.112;5.878;2023-04-06T03:51:12;4.98;61.79
70300;HTU21D;57704;51.112;5.878;2023-04-06T03:53:57;4.92;61.88
70300;HTU21D;57704;51.112;5.878;2023-04-06T03:56:22;4.84;62.08
70300;HTU21D;57704;51.112;5.878;2023-04-06T03:59:07;4.88;62.16
70300;HTU21D;57704;51.112;5.878;2023-04-06T04:01:52;4.91;62.15
70300;HTU21D;57704;51.112;5.878;2023-04-06T04:04:18;5.00;62.04
70300;HTU21D;57704;51.112;5.878;2023-04-06T04:07:02;4.96;62.15
70300;HTU21D;57704;51.112;5.878;2023-04-06T04:09:29;5.01;62.09
70300;HTU21D;57704;51.112;5.878;2023-04-06T04:11:55;5.08;62.00
70300;HTU21D;57704;51.112;5.878;2023-04-06T04:14:21;5.12;61.79
70300;HTU21D;57704;51.112;5.878;2023-04-06T04:16:47;5.17;61.70
70300;HTU21D;57704;51.112;5.878;2023-04-06T04:19:13;5.21;61.63
70300;HTU21D;57704;51.112;5.878;2023-04-06T04:21:44;5.31;61.52
70300;HTU21D;57704;51.112;5.878;2023-04-06T04:24:30;5.39;61.28
70300;HTU21D;57704;51.112;5.878;2023-04-06T04:26:57;5.46;61.04
70300;HTU21D;57704;51.112;5.878;2023-04-06T04:29:41;5.41;60.94
70300;HTU21D;57704;51.112;5.878;2023-04-06T04:32:30;5.36;60.99
70300;HTU21D;57704;51.112;5.878;2023-04-06T04:34:58;5.35;61.12
70300;HTU21D;57704;51.112;5.878;2023-04-06T04:37:33;5.33;61.17
70300;HTU21D;57704;51.112;5.878;2023-04-06T04:40:00;5.31;61.28
70300;HTU21D;57704;51.112;5.878;2023-04-06T04:42:29;5.31;61.38
70300;HTU21D;57704;51.112;5.878;2023-04-06T04:45:19;5.30;61.44
70300;HTU21D;57704;51.112;5.878;2023-04-06T04:47:45;5.32;61.44
70300;HTU21D;57704;51.112;5.878;2023-04-06T04:50:14;5.32;61.32
70300;HTU21D;57704;51.112;5.878;2023-04-06T04:52:43;5.32;61.38
70300;HTU21D;57704;51.112;5.878;2023-04-06T04:55:19;5.37;61.34
70300;HTU21D;57704;51.112;5.878;2023-04-06T04:58:07;5.42;61.21
70300;HTU21D;57704;51.112;5.878;2023-04-06T05:00:47;5.43;61.21
70300;HTU21D;57704;51.112;5.878;2023-04-06T05:03:33;5.46;61.11
70300;HTU21D;57704;51.112;5.878;2023-04-06T05:06:24;5.45;61.25
70300;HTU21D;57704;51.112;5.878;2023-04-06T05:09:09;5.48;61.31
70300;HTU21D;57704;51.112;5.878;2023-04-06T05:11:54;5.50;61.32
70300;HTU21D;57704;51.112;5.878;2023-04-06T05:14:39;5.51;61.34
70300;HTU21D;57704;51.112;5.878;2023-04-06T05:17:30;5.54;61.35
70300;HTU21D;57704;51.112;5.878;2023-04-06T05:20:15;5.57;61.30
70300;HTU21D;57704;51.112;5.878;2023-04-06T05:22:50;5.65;61.28
70300;HTU21D;57704;51.112;5.878;2023-04-06T05:25:35;5.71;61.16
70300;HTU21D;57704;51.112;5.878;2023-04-06T05:28:11;5.72;61.01
70300;HTU21D;57704;51.112;5.878;2023-04-06T05:30:58;5.69;60.92
70300;HTU21D;57704;51.112;5.878;2023-04-06T05:33:47;5.72;60.98
70300;HTU21D;57704;51.112;5.878;2023-04-06T05:36:34;5.77;60.80
70300;HTU21D;57704;51.112;5.878;2023-04-06T05:39:05;5.71;60.84
70300;HTU21D;57704;51.112;5.878;2023-04-06T05:42:03;5.75;60.87
70300;HTU21D;57704;51.112;5.878;2023-04-06T05:44:38;5.78;60.81
70300;HTU21D;57704;51.112;5.878;2023-04-06T05:47:09;5.80;60.76
70300;HTU21D;57704;51.112;5.878;2023-04-06T05:49:38;5.84;60.70
70300;HTU21D;57704;51.112;5.878;2023-04-06T05:52:08;5.87;60.55
70300;HTU21D;57704;51.112;5.878;2023-04-06T05:54:53;5.97;60.61
70300;HTU21D;57704;51.112;5.878;2023-04-06T05:57:19;6.04;60.43
70300;HTU21D;57704;51.112;5.878;2023-04-06T05:59:45;6.07;60.38
70300;HTU21D;57704;51.112;5.878;2023-04-06T06:02:13;6.14;60.41
70300;HTU21D;57704;51.112;5.878;2023-04-06T06:05:01;6.24;60.32
70300;HTU21D;57704;51.112;5.878;2023-04-06T06:07:46;6.26;60.40
70300;HTU21D;57704;51.112;5.878;2023-04-06T06:10:12;6.30;60.28
70300;HTU21D;57704;51.112;5.878;2023-04-06T06:12:38;6.35;60.19
70300;HTU21D;57704;51.112;5.878;2023-04-06T06:15:23;6.43;60.09
70300;HTU21D;57704;51.112;5.878;2023-04-06T06:17:50;6.54;60.05
70300;HTU21D;57704;51.112;5.878;2023-04-06T06:20:16;6.64;59.80
70300;HTU21D;57704;51.112;5.878;2023-04-06T06:22:43;6.70;59.67
70300;HTU21D;57704;51.112;5.878;2023-04-06T06:25:15;6.78;59.60
70300;HTU21D;57704;51.112;5.878;2023-04-06T06:27:41;6.83;59.44
70300;HTU21D;57704;51.112;5.878;2023-04-06T06:30:27;6.89;59.41
70300;HTU21D;57704;51.112;5.878;2023-04-06T06:33:11;6.96;59.27
70300;HTU21D;57704;51.112;5.878;2023-04-06T06:35:37;7.02;59.16
70300;HTU21D;57704;51.112;5.878;2023-04-06T06:38:04;7.04;59.14
70300;HTU21D;57704;51.112;5.878;2023-04-06T06:40:51;7.15;59.03
70300;HTU21D;57704;51.112;5.878;2023-04-06T06:43:17;7.23;58.75
70300;HTU21D;57704;51.112;5.878;2023-04-06T06:45:54;7.22;58.71
70300;HTU21D;57704;51.112;5.878;2023-04-06T06:48:20;7.23;58.66
70300;HTU21D;57704;51.112;5.878;2023-04-06T06:50:47;7.32;58.53
70300;HTU21D;57704;51.112;5.878;2023-04-06T06:53:14;7.41;58.32
70300;HTU21D;57704;51.112;5.878;2023-04-06T06:55:40;7.48;58.20
70300;HTU21D;57704;51.112;5.878;2023-04-06T06:58:08;7.56;58.10
70300;HTU21D;57704;51.112;5.878;2023-04-06T07:00:34;7.67;57.99
70300;HTU21D;57704;51.112;5.878;2023-04-06T07:03:00;7.75;57.75
70300;HTU21D;57704;51.112;5.878;2023-04-06T07:05:26;7.83;57.67
70300;HTU21D;57704;51.112;5.878;2023-04-06T07:07:56;7.92;57.45
70300;HTU21D;57704;51.112;5.878;2023-04-06T07:10:22;7.99;57.33
70300;HTU21D;57704;51.112;5.878;2023-04-06T07:12:48;8.12;56.96
70300;HTU21D;57704;51.112;5.878;2023-04-06T07:15:14;8.17;56.84
70300;HTU21D;57704;51.112;5.878;2023-04-06T07:17:40;8.28;56.52
70300;HTU21D;57704;51.112;5.878;2023-04-06T07:20:12;8.35;56.18
70300;HTU21D;57704;51.112;5.878;2023-04-06T07:22:39;8.41;55.98
70300;HTU21D;57704;51.112;5.878;2023-04-06T07:25:05;8.46;55.85
70300;HTU21D;57704;51.112;5.878;2023-04-06T07:27:31;8.52;55.60
70300;HTU21D;57704;51.112;5.878;2023-04-06T07:29:58;8.51;55.60
70300;HTU21D;57704;51.112;5.878;2023-04-06T07:32:25;8.52;55.50
70300;HTU21D;57704;51.112;5.878;2023-04-06T07:34:52;8.52;55.55
70300;HTU21D;57704;51.112;5.878;2023-04-06T07:37:17;8.59;55.47
70300;HTU21D;57704;51.112;5.878;2023-04-06T07:39:44;8.65;55.26
70300;HTU21D;57704;51.112;5.878;2023-04-06T07:42:11;8.73;55.23
70300;HTU21D;57704;51.112;5.878;2023-04-06T07:44:37;8.82;55.15
70300;HTU21D;57704;51.112;5.878;2023-04-06T07:47:03;8.94;55.00
70300;HTU21D;57704;51.112;5.878;2023-04-06T07:49:29;9.03;54.99
70300;HTU21D;57704;51.112;5.878;2023-04-06T07:51:56;9.11;54.91
70300;HTU21D;57704;51.112;5.878;2023-04-06T07:54:21;9.19;54.64
70300;HTU21D;57704;51.112;5.878;2023-04-06T07:56:47;9.23;54.43
70300;HTU21D;57704;51.112;5.878;2023-04-06T07:59:13;9.25;54.39
70300;HTU21D;57704;51.112;5.878;2023-04-06T08:01:39;9.30;54.49
70300;HTU21D;57704;51.112;5.878;2023-04-06T08:04:05;9.38;54.35
70300;HTU21D;57704;51.112;5.878;2023-04-06T08:06:31;9.48;54.13
70300;HTU21D;57704;51.112;5.878;2023-04-06T08:08:57;9.62;54.17
70300;HTU21D;57704;51.112;5.878;2023-04-06T08:11:23;9.81;53.90
70300;HTU21D;57704;51.112;5.878;2023-04-06T08:13:49;10.00;53.77
70300;HTU21D;57704;51.112;5.878;2023-04-06T08:16:15;10.20;53.42
70300;HTU21D;57704;51.112;5.878;2023-04-06T08:18:42;10.34;53.30
70300;HTU21D;57704;51.112;5.878;2023-04-06T08:21:08;10.46;52.81
70300;HTU21D;57704;51.112;5.878;2023-04-06T08:23:33;10.53;52.77
70300;HTU21D;57704;51.112;5.878;2023-04-06T08:25:59;10.69;52.85
70300;HTU21D;57704;51.112;5.878;2023-04-06T08:28:25;10.83;52.58
70300;HTU21D;57704;51.112;5.878;2023-04-06T08:30:51;11.00;52.15
70300;HTU21D;57704;51.112;5.878;2023-04-06T08:33:17;11.02;52.23
70300;HTU21D;57704;51.112;5.878;2023-04-06T08:35:44;11.11;52.27
70300;HTU21D;57704;51.112;5.878;2023-04-06T08:38:10;11.24;52.24
70300;HTU21D;57704;51.112;5.878;2023-04-06T08:40:40;11.45;51.90
70300;HTU21D;57704;51.112;5.878;2023-04-06T08:43:13;11.75;51.18
70300;HTU21D;57704;51.112;5.878;2023-04-06T08:45:41;11.94;49.97
70300;HTU21D;57704;51.112;5.878;2023-04-06T08:48:08;12.08;50.24
70300;HTU21D;57704;51.112;5.878;2023-04-06T08:50:35;12.33;49.44
70300;HTU21D;57704;51.112;5.878;2023-04-06T08:53:02;12.49;48.98
70300;HTU21D;57704;51.112;5.878;2023-04-06T08:55:28;12.61;48.31
70300;HTU21D;57704;51.112;5.878;2023-04-06T08:57:55;12.69;47.76
70300;HTU21D;57704;51.112;5.878;2023-04-06T09:00:22;12.64;47.26
70300;HTU21D;57704;51.112;5.878;2023-04-06T09:02:49;12.60;47.20
70300;HTU21D;57704;51.112;5.878;2023-04-06T09:05:16;12.65;46.91
70300;HTU21D;57704;51.112;5.878;2023-04-06T09:07:42;12.65;46.87
70300;HTU21D;57704;51.112;5.878;2023-04-06T09:10:08;12.63;46.60
70300;HTU21D;57704;51.112;5.878;2023-04-06T09:12:34;12.63;46.83
70300;HTU21D;57704;51.112;5.878;2023-04-06T09:15:01;12.62;46.97
70300;HTU21D;57704;51.112;5.878;2023-04-06T09:17:32;12.59;47.17
70300;HTU21D;57704;51.112;5.878;2023-04-06T09:20:03;12.73;47.13
70300;HTU21D;57704;51.112;5.878;2023-04-06T09:22:39;12.76;46.76
70300;HTU21D;57704;51.112;5.878;2023-04-06T09:25:07;12.73;46.76
70300;HTU21D;57704;51.112;5.878;2023-04-06T09:27:36;12.66;46.96
70300;HTU21D;57704;51.112;5.878;2023-04-06T09:32:30;12.64;46.84
70300;HTU21D;57704;51.112;5.878;2023-04-06T09:35:09;12.66;46.92
70300;HTU21D;57704;51.112;5.878;2023-04-06T09:37:35;12.70;46.79
70300;HTU21D;57704;51.112;5.878;2023-04-06T09:40:06;12.71;46.55
70300;HTU21D;57704;51.112;5.878;2023-04-06T09:42:33;12.74;46.49
70300;HTU21D;57704;51.112;5.878;2023-04-06T09:45:01;12.85;46.20
70300;HTU21D;57704;51.112;5.878;2023-04-06T09:47:27;12.96;46.33
70300;HTU21D;57704;51.112;5.878;2023-04-06T09:49:59;13.07;46.07
70300;HTU21D;57704;51.112;5.878;2023-04-06T09:52:33;13.23;46.09
70300;HTU21D;57704;51.112;5.878;2023-04-06T09:55:04;13.38;44.93
70300;HTU21D;57704;51.112;5.878;2023-04-06T09:57:57;13.43;45.45
70300;HTU21D;57704;51.112;5.878;2023-04-06T10:00:25;13.46;45.51
70300;HTU21D;57704;51.112;5.878;2023-04-06T10:07:54;13.71;45.41
70300;HTU21D;57704;51.112;5.878;2023-04-06T10:10:22;13.77;45.88
70300;HTU21D;57704;51.112;5.878;2023-04-06T10:12:48;13.95;46.16
70300;HTU21D;57704;51.112;5.878;2023-04-06T10:15:16;14.03;45.73
70300;HTU21D;57704;51.112;5.878;2023-04-06T10:17:42;14.15;45.16
70300;HTU21D;57704;51.112;5.878;2023-04-06T10:23:00;14.22;45.33
70300;HTU21D;57704;51.112;5.878;2023-04-06T10:25:28;14.47;44.88
70300;HTU21D;57704;51.112;5.878;2023-04-06T10:28:02;14.59;44.07
70300;HTU21D;57704;51.112;5.878;2023-04-06T10:30:30;14.55;44.26
70300;HTU21D;57704;51.112;5.878;2023-04-06T10:32:56;14.59;44.07
70300;HTU21D;57704;51.112;5.878;2023-04-06T10:35:22;14.56;43.50
70300;HTU21D;57704;51.112;5.878;2023-04-06T10:37:53;14.51;44.26
70300;HTU21D;57704;51.112;5.878;2023-04-06T10:40:19;14.41;44.25
70300;HTU21D;57704;51.112;5.878;2023-04-06T10:42:45;14.39;44.26
70300;HTU21D;57704;51.112;5.878;2023-04-06T10:45:26;14.30;44.25
70300;HTU21D;57704;51.112;5.878;2023-04-06T10:47:56;14.20;44.74
70300;HTU21D;57704;51.112;5.878;2023-04-06T10:50:23;14.17;44.87
70300;HTU21D;57704;51.112;5.878;2023-04-06T10:53:00;14.03;45.60
70300;HTU21D;57704;51.112;5.878;2023-04-06T10:55:27;13.96;45.46
70300;HTU21D;57704;51.112;5.878;2023-04-06T10:57:54;13.81;46.12
70300;HTU21D;57704;51.112;5.878;2023-04-06T11:00:20;13.81;46.96
70300;HTU21D;57704;51.112;5.878;2023-04-06T11:02:46;13.74;46.80
70300;HTU21D;57704;51.112;5.878;2023-04-06T11:05:13;13.61;47.05
70300;HTU21D;57704;51.112;5.878;2023-04-06T11:07:40;13.51;47.40
70300;HTU21D;57704;51.112;5.878;2023-04-06T11:10:07;13.46;47.65
70300;HTU21D;57704;51.112;5.878;2023-04-06T11:12:33;13.34;47.79
70300;HTU21D;57704;51.112;5.878;2023-04-06T11:15:02;13.16;48.82
70300;HTU21D;57704;51.112;5.878;2023-04-06T11:17:33;13.07;50.17
70300;HTU21D;57704;51.112;5.878;2023-04-06T11:20:00;13.00;51.19
70300;HTU21D;57704;51.112;5.878;2023-04-06T11:22:27;12.79;51.33
70300;HTU21D;57704;51.112;5.878;2023-04-06T11:24:53;12.56;52.28
70300;HTU21D;57704;51.112;5.878;2023-04-06T11:27:30;12.50;54.19
70300;HTU21D;57704;51.112;5.878;2023-04-06T11:29:59;12.42;53.71
70300;HTU21D;57704;51.112;5.878;2023-04-06T11:32:26;12.27;54.07
70300;HTU21D;57704;51.112;5.878;2023-04-06T11:34:52;12.20;54.84
70300;HTU21D;57704;51.112;5.878;2023-04-06T11:37:17;12.10;56.00
70300;HTU21D;57704;51.112;5.878;2023-04-06T11:39:47;11.97;56.19
70300;HTU21D;57704;51.112;5.878;2023-04-06T11:42:22;11.84;57.10
70300;HTU21D;57704;51.112;5.878;2023-04-06T11:44:50;11.73;58.20
70300;HTU21D;57704;51.112;5.878;2023-04-06T11:47:18;11.64;59.47
70300;HTU21D;57704;51.112;5.878;2023-04-06T11:49:45;11.53;58.95
70300;HTU21D;57704;51.112;5.878;2023-04-06T11:54:41;11.17;60.80
70300;HTU21D;57704;51.112;5.878;2023-04-06T11:57:08;11.02;61.47
70300;HTU21D;57704;51.112;5.878;2023-04-06T11:59:35;10.92;62.89
70300;HTU21D;57704;51.112;5.878;2023-04-06T12:02:02;10.59;63.05
70300;HTU21D;57704;51.112;5.878;2023-04-06T12:04:28;10.44;64.42
70300;HTU21D;57704;51.112;5.878;2023-04-06T12:06:54;10.31;65.14
70300;HTU21D;57704;51.112;5.878;2023-04-06T12:09:20;10.21;65.10
70300;HTU21D;57704;51.112;5.878;2023-04-06T12:11:46;10.21;65.43
70300;HTU21D;57704;51.112;5.878;2023-04-06T12:14:13;10.16;65.92
70300;HTU21D;57704;51.112;5.878;2023-04-06T12:16:39;10.16;67.53
70300;HTU21D;57704;51.112;5.878;2023-04-06T12:19:06;10.28;66.88
70300;HTU21D;57704;51.112;5.878;2023-04-06T12:21:34;10.27;66.46
70300;HTU21D;57704;51.112;5.878;2023-04-06T12:24:03;10.41;66.14
70300;HTU21D;57704;51.112;5.878;2023-04-06T12:26:30;10.41;66.44
70300;HTU21D;57704;51.112;5.878;2023-04-06T12:28:57;10.51;66.20
70300;HTU21D;57704;51.112;5.878;2023-04-06T12:31:24;10.75;66.29
70300;HTU21D;57704;51.112;5.878;2023-04-06T12:33:51;10.71;66.01
70300;HTU21D;57704;51.112;5.878;2023-04-06T12:36:19;10.68;66.63
70300;HTU21D;57704;51.112;5.878;2023-04-06T12:38:49;10.66;66.24
70300;HTU21D;57704;51.112;5.878;2023-04-06T12:41:17;10.44;66.86
70300;HTU21D;57704;51.112;5.878;2023-04-06T12:43:43;10.38;67.04
70300;HTU21D;57704;51.112;5.878;2023-04-06T12:46:10;10.37;67.88
70300;HTU21D;57704;51.112;5.878;2023-04-06T12:48:36;10.33;67.81
70300;HTU21D;57704;51.112;5.878;2023-04-06T12:51:04;10.33;68.64
70300;HTU21D;57704;51.112;5.878;2023-04-06T12:53:32;10.41;68.80
70300;HTU21D;57704;51.112;5.878;2023-04-06T12:55:59;10.42;69.36
70300;HTU21D;57704;51.112;5.878;2023-04-06T12:58:26;10.44;69.19
70300;HTU21D;57704;51.112;5.878;2023-04-06T13:00:53;10.27;68.89
70300;HTU21D;57704;51.112;5.878;2023-04-06T13:03:20;10.23;70.29
70300;HTU21D;57704;51.112;5.878;2023-04-06T13:05:47;10.15;70.45
70300;HTU21D;57704;51.112;5.878;2023-04-06T13:08:14;10.09;70.77
70300;HTU21D;57704;51.112;5.878;2023-04-06T13:10:48;10.07;70.04
70300;HTU21D;57704;51.112;5.878;2023-04-06T13:13:15;10.06;71.04
70300;HTU21D;57704;51.112;5.878;2023-04-06T13:15:41;9.95;70.80
70300;HTU21D;57704;51.112;5.878;2023-04-06T13:18:08;9.91;70.68
70300;HTU21D;57704;51.112;5.878;2023-04-06T13:20:35;9.93;70.93
70300;HTU21D;57704;51.112;5.878;2023-04-06T13:23:01;9.92;71.22
70300;HTU21D;57704;51.112;5.878;2023-04-06T13:25:29;9.98;71.26
70300;HTU21D;57704;51.112;5.878;2023-04-06T13:27:55;10.04;70.83
70300;HTU21D;57704;51.112;5.878;2023-04-06T13:30:22;10.08;70.93
70300;HTU21D;57704;51.112;5.878;2023-04-06T13:32:48;10.16;71.83
70300;HTU21D;57704;51.112;5.878;2023-04-06T13:35:14;10.08;72.15
70300;HTU21D;57704;51.112;5.878;2023-04-06T13:37:40;9.99;72.82
70300;HTU21D;57704;51.112;5.878;2023-04-06T13:40:07;9.96;71.67
70300;HTU21D;57704;51.112;5.878;2023-04-06T13:42:33;9.82;72.68
70300;HTU21D;57704;51.112;5.878;2023-04-06T13:45:01;9.80;72.70
70300;HTU21D;57704;51.112;5.878;2023-04-06T13:47:27;9.85;72.38
70300;HTU21D;57704;51.112;5.878;2023-04-06T13:49:53;9.71;73.05
70300;HTU21D;57704;51.112;5.878;2023-04-06T13:52:21;9.71;72.80
70300;HTU21D;57704;51.112;5.878;2023-04-06T13:54:49;9.76;73.16
70300;HTU21D;57704;51.112;5.878;2023-04-06T13:57:15;9.80;72.88
70300;HTU21D;57704;51.112;5.878;2023-04-06T13:59:42;9.82;73.27
70300;HTU21D;57704;51.112;5.878;2023-04-06T14:02:10;9.91;72.91
70300;HTU21D;57704;51.112;5.878;2023-04-06T14:04:36;9.95;73.19
70300;HTU21D;57704;51.112;5.878;2023-04-06T14:07:03;9.96;73.15
70300;HTU21D;57704;51.112;5.878;2023-04-06T14:09:33;10.03;73.20
70300;HTU21D;57704;51.112;5.878;2023-04-06T14:11:59;10.08;73.74
70300;HTU21D;57704;51.112;5.878;2023-04-06T14:14:25;10.05;73.55
70300;HTU21D;57704;51.112;5.878;2023-04-06T14:16:52;10.06;73.61
70300;HTU21D;57704;51.112;5.878;2023-04-06T14:19:18;10.06;73.47
70300;HTU21D;57704;51.112;5.878;2023-04-06T14:21:45;10.01;73.74
70300;HTU21D;57704;51.112;5.878;2023-04-06T14:24:11;9.96;74.86
70300;HTU21D;57704;51.112;5.878;2023-04-06T14:26:38;9.88;74.18
70300;HTU21D;57704;51.112;5.878;2023-04-06T14:29:04;9.82;74.29
70300;HTU21D;57704;51.112;5.878;2023-04-06T14:31:32;9.82;75.25
70300;HTU21D;57704;51.112;5.878;2023-04-06T14:34:00;9.84;74.54
70300;HTU21D;57704;51.112;5.878;2023-04-06T14:36:26;9.88;74.73
70300;HTU21D;57704;51.112;5.878;2023-04-06T14:38:57;9.82;75.58
70300;HTU21D;57704;51.112;5.878;2023-04-06T14:41:24;9.81;74.73
70300;HTU21D;57704;51.112;5.878;2023-04-06T14:43:50;9.89;74.64
70300;HTU21D;57704;51.112;5.878;2023-04-06T14:46:18;9.95;74.86
70300;HTU21D;57704;51.112;5.878;2023-04-06T14:48:47;9.96;74.54
70300;HTU21D;57704;51.112;5.878;2023-04-06T14:51:13;9.94;74.94
70300;HTU21D;57704;51.112;5.878;2023-04-06T14:53:39;9.92;74.51
70300;HTU21D;57704;51.112;5.878;2023-04-06T14:56:06;9.91;74.54
70300;HTU21D;57704;51.112;5.878;2023-04-06T14:58:32;9.93;74.31
70300;HTU21D;57704;51.112;5.878;2023-04-06T15:00:59;9.84;74.18
70300;HTU21D;57704;51.112;5.878;2023-04-06T15:03:27;9.85;74.32
70300;HTU21D;57704;51.112;5.878;2023-04-06T15:05:54;9.97;74.12
70300;HTU21D;57704;51.112;5.878;2023-04-06T15:08:21;9.90;74.31
70300;HTU21D;57704;51.112;5.878;2023-04-06T15:10:49;9.91;74.06
70300;HTU21D;57704;51.112;5.878;2023-04-06T15:13:16;9.95;74.22
70300;HTU21D;57704;51.112;5.878;2023-04-06T15:15:42;9.99;74.00
70300;HTU21D;57704;51.112;5.878;2023-04-06T15:18:11;10.00;74.03
70300;HTU21D;57704;51.112;5.878;2023-04-06T15:20:37;10.00;73.93
70300;HTU21D;57704;51.112;5.878;2023-04-06T15:23:04;9.95;73.80
70300;HTU21D;57704;51.112;5.878;2023-04-06T15:25:30;9.92;74.07
70300;HTU21D;57704;51.112;5.878;2023-04-06T15:27:56;9.90;74.29
70300;HTU21D;57704;51.112;5.878;2023-04-06T15:30:23;9.89;74.45
70300;HTU21D;57704;51.112;5.878;2023-04-06T15:32:57;9.85;74.23
70300;HTU21D;57704;51.112;5.878;2023-04-06T15:35:24;9.83;74.52
70300;HTU21D;57704;51.112;5.878;2023-04-06T15:37:51;9.79;74.46
70300;HTU21D;57704;51.112;5.878;2023-04-06T15:40:17;9.81;74.24
70300;HTU21D;57704;51.112;5.878;2023-04-06T15:42:43;9.80;74.51
70300;HTU21D;57704;51.112;5.878;2023-04-06T15:45:10;9.78;74.80
70300;HTU21D;57704;51.112;5.878;2023-04-06T15:47:44;9.72;75.41
70300;HTU21D;57704;51.112;5.878;2023-04-06T15:50:13;9.67;75.83
70300;HTU21D;57704;51.112;5.878;2023-04-06T15:52:39;9.64;75.99
70300;HTU21D;57704;51.112;5.878;2023-04-06T15:55:07;9.65;76.91
70300;HTU21D;57704;51.112;5.878;2023-04-06T15:57:34;9.52;77.42
70300;HTU21D;57704;51.112;5.878;2023-04-06T16:00:01;9.48;78.10
70300;HTU21D;57704;51.112;5.878;2023-04-06T16:02:27;9.47;77.57
70300;HTU21D;57704;51.112;5.878;2023-04-06T16:04:57;9.47;78.25